createdAt,value
2018-05-02T00:00:05.501Z,14.91
2018-05-02T00:01:05.426Z,15.03
2018-05-02T00:02:08.257Z,14.97
2018-05-02T00:03:05.484Z,15.03
2018-05-02T00:04:05.217Z,14.99
2018-05-02T00:05:05.550Z,14.92
2018-05-02T00:06:05.279Z,14.92
2018-05-02T00:07:05.582Z,14.94
2018-05-02T00:08:05.016Z,14.85
2018-05-02T00:09:05.298Z,14.81
2018-05-02T00:10:05.364Z,14.88
2018-05-02T00:11:05.361Z,14.82
2018-05-02T00:12:05.375Z,14.85
2018-05-02T00:13:05.386Z,14.84
2018-05-02T00:14:05.439Z,14.78
2018-05-02T00:15:05.436Z,14.81
2018-05-02T00:16:05.729Z,14.79
2018-05-02T00:17:05.730Z,14.7
2018-05-02T00:18:05.992Z,14.77
2018-05-02T00:19:05.793Z,14.73
2018-05-02T00:20:05.517Z,14.78
2018-05-02T00:21:05.856Z,14.73
2018-05-02T00:22:05.561Z,14.68
2018-05-02T00:23:05.862Z,14.66
2018-05-02T00:24:05.891Z,14.63
2018-05-02T00:25:05.908Z,14.66
2018-05-02T00:26:05.649Z,14.68
2018-05-02T00:27:05.938Z,14.54
2018-05-02T00:28:05.977Z,14.63
2018-05-02T00:29:05.974Z,14.58
2018-05-02T00:30:05.992Z,14.51
2018-05-02T00:31:06.007Z,14.53
2018-05-02T00:32:05.765Z,14.51
2018-05-02T00:33:05.748Z,14.53
2018-05-02T00:34:05.544Z,14.51
2018-05-02T00:35:06.099Z,14.53
2018-05-02T00:36:05.587Z,14.48
2018-05-02T00:37:06.122Z,14.4
2018-05-02T00:38:05.583Z,14.41
2018-05-02T00:39:05.879Z,14.47
2018-05-02T00:40:05.622Z,14.44
2018-05-02T00:41:05.899Z,14.41
2018-05-02T00:42:05.972Z,14.4
2018-05-02T00:43:06.261Z,14.36
2018-05-02T00:44:06.252Z,14.32
2018-05-02T00:45:06.080Z,14.36
2018-05-02T00:46:06.075Z,14.41
2018-05-02T00:47:06.319Z,14.33
2018-05-02T00:48:06.072Z,14.3
2018-05-02T00:49:05.785Z,14.29
2018-05-02T00:50:06.392Z,14.29
2018-05-02T00:51:06.533Z,14.22
2018-05-02T00:52:06.129Z,14.28
2018-05-02T00:53:06.428Z,14.26
2018-05-02T00:54:06.140Z,14.3
2018-05-02T00:55:06.473Z,14.25
2018-05-02T00:56:06.510Z,14.2
2018-05-02T00:57:05.929Z,14.2
2018-05-02T00:58:06.508Z,14.25
2018-05-02T00:59:06.240Z,14.18
2018-05-02T01:00:06.269Z,14.2
2018-05-02T01:01:06.283Z,14.15
2018-05-02T01:02:06.024Z,14.22
2018-05-02T01:03:06.325Z,14.22
2018-05-02T01:04:06.642Z,14.17
2018-05-02T01:05:06.646Z,14.18
2018-05-02T01:06:06.653Z,14.15
2018-05-02T01:07:06.666Z,14.14
2018-05-02T01:08:06.683Z,14.17
2018-05-02T01:09:06.710Z,14.14
2018-05-02T01:10:06.721Z,14.15
2018-05-02T01:11:06.816Z,14.1
2018-05-02T01:12:06.764Z,14.07
2018-05-02T01:13:06.498Z,14.11
2018-05-02T01:14:06.540Z,14.07
2018-05-02T01:15:06.821Z,13.99
2018-05-02T01:16:06.725Z,14.05
2018-05-02T01:17:06.571Z,14.04
2018-05-02T01:18:06.321Z,13.99
2018-05-02T01:19:06.913Z,13.96
2018-05-02T01:20:06.928Z,14.03
2018-05-02T01:21:06.921Z,13.92
2018-05-02T01:22:06.688Z,13.93
2018-05-02T01:23:06.954Z,13.95
2018-05-02T01:24:06.727Z,13.9
2018-05-02T01:25:06.740Z,13.92
2018-05-02T01:26:06.745Z,13.9
2018-05-02T01:27:06.752Z,13.83
2018-05-02T01:28:06.765Z,13.85
2018-05-02T01:29:06.813Z,13.93
2018-05-02T01:30:06.835Z,13.86
2018-05-02T01:31:06.883Z,13.81
2018-05-02T01:32:06.844Z,13.93
2018-05-02T01:33:06.867Z,13.81
2018-05-02T01:34:06.899Z,13.86
2018-05-02T01:35:06.925Z,13.79
2018-05-02T01:36:06.662Z,13.75
2018-05-02T01:37:07.238Z,13.79
2018-05-02T01:38:06.964Z,13.81
2018-05-02T01:39:06.703Z,13.77
2018-05-02T01:40:07.288Z,13.81
2018-05-02T01:41:07.025Z,13.74
2018-05-02T01:42:07.316Z,13.78
2018-05-02T01:43:07.349Z,13.79
2018-05-02T01:44:07.091Z,13.74
2018-05-02T01:45:07.099Z,13.77
2018-05-02T01:46:07.401Z,13.72
2018-05-02T01:47:07.146Z,13.74
2018-05-02T01:48:07.421Z,13.62
2018-05-02T01:49:07.425Z,13.67
2018-05-02T01:50:07.195Z,13.67
2018-05-02T01:51:07.202Z,13.7
2018-05-02T01:52:07.505Z,13.68
2018-05-02T01:53:07.238Z,13.6
2018-05-02T01:54:06.967Z,13.62
2018-05-02T01:55:06.995Z,13.59
2018-05-02T01:56:07.285Z,13.59
2018-05-02T01:57:07.326Z,13.56
2018-05-02T01:58:07.615Z,13.56
2018-05-02T01:59:07.625Z,13.54
2018-05-02T02:00:07.345Z,13.6
2018-05-02T02:01:07.426Z,13.56
2018-05-02T02:02:07.658Z,13.5
2018-05-02T02:03:07.713Z,13.52
2018-05-02T02:04:07.734Z,13.47
2018-05-02T02:05:07.449Z,13.5
2018-05-02T02:06:07.472Z,13.33
2018-05-02T02:07:07.760Z,13.46
2018-05-02T02:08:07.791Z,13.46
2018-05-02T02:09:07.543Z,13.5
2018-05-02T02:10:07.892Z,13.42
2018-05-02T02:11:07.555Z,13.44
2018-05-02T02:12:07.588Z,13.31
2018-05-02T02:13:07.582Z,13.31
2018-05-02T02:14:07.901Z,13.38
2018-05-02T02:15:07.939Z,13.38
2018-05-02T02:16:07.643Z,13.33
2018-05-02T02:17:07.964Z,13.37
2018-05-02T02:18:07.691Z,13.37
2018-05-02T02:19:07.718Z,13.31
2018-05-02T02:20:07.731Z,13.35
2018-05-02T02:21:07.722Z,13.31
2018-05-02T02:22:08.038Z,13.33
2018-05-02T02:23:07.495Z,13.28
2018-05-02T02:24:07.783Z,13.35
2018-05-02T02:25:07.817Z,13.25
2018-05-02T02:26:08.114Z,13.22
2018-05-02T02:27:07.864Z,13.2
2018-05-02T02:28:08.144Z,13.19
2018-05-02T02:29:07.878Z,13.23
2018-05-02T02:30:08.195Z,13.23
2018-05-02T02:31:08.177Z,13.23
2018-05-02T02:32:07.938Z,13.19
2018-05-02T02:33:08.235Z,13.19
2018-05-02T02:34:08.623Z,13.2
2018-05-02T02:35:08.003Z,13.15
2018-05-02T02:36:08.290Z,13.15
2018-05-02T02:37:08.024Z,13.13
2018-05-02T02:38:08.337Z,13.16
2018-05-02T02:39:08.368Z,13.11
2018-05-02T02:40:08.094Z,13.15
2018-05-02T02:41:07.912Z,13.04
2018-05-02T02:42:08.107Z,13.16
2018-05-02T02:43:08.115Z,13.08
2018-05-02T02:44:08.163Z,13.09
2018-05-02T02:45:08.436Z,13.09
2018-05-02T02:46:08.186Z,13.15
2018-05-02T02:47:08.187Z,13.09
2018-05-02T02:48:08.232Z,13.11
2018-05-02T02:49:08.524Z,13.09
2018-05-02T02:50:08.257Z,13.08
2018-05-02T02:51:08.258Z,13.08
2018-05-02T02:52:08.279Z,13.11
2018-05-02T02:53:08.313Z,13.03
2018-05-02T02:54:08.628Z,13.01
2018-05-02T02:55:08.071Z,12.93
2018-05-02T02:56:08.658Z,12.94
2018-05-02T02:57:08.703Z,13.05
2018-05-02T02:58:08.405Z,13.05
2018-05-02T02:59:08.702Z,13
2018-05-02T03:00:08.692Z,13.05
2018-05-02T03:01:08.450Z,13.01
2018-05-02T03:02:08.789Z,12.98
2018-05-02T03:03:08.488Z,12.97
2018-05-02T03:04:08.778Z,12.94
2018-05-02T03:05:08.246Z,12.94
2018-05-02T03:06:08.529Z,12.91
2018-05-02T03:07:08.832Z,12.94
2018-05-02T03:08:08.859Z,12.86
2018-05-02T03:09:08.606Z,12.87
2018-05-02T03:10:08.927Z,12.95
2018-05-02T03:11:08.927Z,12.94
2018-05-02T03:12:08.367Z,12.93
2018-05-02T03:13:08.935Z,12.94
2018-05-02T03:14:08.690Z,12.93
2018-05-02T03:15:08.993Z,12.95
2018-05-02T03:16:08.982Z,12.9
2018-05-02T03:17:08.739Z,12.93
2018-05-02T03:18:08.744Z,12.91
2018-05-02T03:19:08.774Z,12.91
2018-05-02T03:20:09.063Z,12.91
2018-05-02T03:21:08.796Z,12.93
2018-05-02T03:22:09.077Z,12.91
2018-05-02T03:23:09.107Z,12.91
2018-05-02T03:24:08.851Z,12.85
2018-05-02T03:25:09.230Z,12.86
2018-05-02T03:26:08.882Z,12.86
2018-05-02T03:27:09.100Z,12.94
2018-05-02T03:28:09.194Z,12.94
2018-05-02T03:29:08.955Z,12.85
2018-05-02T03:30:09.227Z,12.83
2018-05-02T03:31:09.232Z,12.86
2018-05-02T03:32:09.362Z,12.87
2018-05-02T03:33:09.281Z,12.91
2018-05-02T03:34:09.017Z,12.93
2018-05-02T03:35:09.339Z,12.93
2018-05-02T03:36:09.394Z,12.82
2018-05-02T03:37:09.070Z,12.93
2018-05-02T03:38:09.375Z,12.86
2018-05-02T03:39:09.375Z,12.87
2018-05-02T03:40:09.135Z,12.85
2018-05-02T03:41:09.147Z,12.83
2018-05-02T03:42:09.171Z,12.83
2018-05-02T03:43:09.456Z,12.9
2018-05-02T03:44:09.467Z,12.83
2018-05-02T03:45:09.510Z,12.82
2018-05-02T03:46:09.230Z,12.85
2018-05-02T03:47:09.511Z,12.86
2018-05-02T03:48:09.527Z,12.82
2018-05-02T03:49:09.556Z,12.78
2018-05-02T03:50:09.592Z,12.79
2018-05-02T03:51:09.325Z,12.82
2018-05-02T03:52:09.333Z,12.79
2018-05-02T03:53:09.780Z,12.83
2018-05-02T03:54:09.649Z,12.82
2018-05-02T03:55:09.684Z,12.82
2018-05-02T03:56:09.116Z,12.8
2018-05-02T03:57:09.425Z,12.78
2018-05-02T03:58:09.715Z,12.79
2018-05-02T03:59:09.460Z,12.75
2018-05-02T04:00:09.752Z,12.72
2018-05-02T04:01:09.483Z,12.7
2018-05-02T04:02:09.789Z,12.78
2018-05-02T04:03:09.804Z,12.73
2018-05-02T04:04:09.836Z,12.72
2018-05-02T04:05:09.818Z,12.68
2018-05-02T04:06:09.839Z,12.68
2018-05-02T04:07:09.295Z,12.76
2018-05-02T04:08:09.880Z,12.73
2018-05-02T04:09:09.642Z,12.7
2018-05-02T04:10:09.926Z,12.72
2018-05-02T04:11:09.658Z,12.68
2018-05-02T04:12:09.675Z,12.67
2018-05-02T04:13:09.697Z,12.67
2018-05-02T04:14:09.711Z,12.67
2018-05-02T04:15:09.731Z,12.62
2018-05-02T04:16:09.468Z,12.72
2018-05-02T04:17:09.763Z,12.67
2018-05-02T04:18:09.769Z,12.61
2018-05-02T04:19:10.059Z,12.7
2018-05-02T04:20:09.823Z,12.64
2018-05-02T04:21:09.546Z,12.76
2018-05-02T04:22:10.136Z,12.7
2018-05-02T04:23:09.855Z,12.62
2018-05-02T04:24:10.177Z,12.68
2018-05-02T04:25:10.165Z,12.61
2018-05-02T04:26:10.104Z,12.64
2018-05-02T04:27:10.230Z,12.75
2018-05-02T04:28:09.934Z,12.65
2018-05-02T04:29:09.980Z,12.65
2018-05-02T04:30:10.274Z,12.7
2018-05-02T04:31:09.997Z,12.62
2018-05-02T04:32:10.295Z,12.67
2018-05-02T04:33:10.316Z,12.73
2018-05-02T04:34:10.303Z,12.65
2018-05-02T04:35:10.350Z,12.76
2018-05-02T04:36:10.395Z,12.78
2018-05-02T04:37:10.115Z,12.78
2018-05-02T04:38:10.400Z,12.76
2018-05-02T04:39:10.139Z,12.8
2018-05-02T04:40:10.142Z,12.8
2018-05-02T04:41:10.264Z,12.78
2018-05-02T04:42:10.477Z,12.8
2018-05-02T04:43:10.491Z,12.78
2018-05-02T04:44:10.217Z,12.76
2018-05-02T04:45:09.975Z,12.78
2018-05-02T04:46:10.261Z,12.76
2018-05-02T04:47:10.295Z,12.82
2018-05-02T04:48:10.279Z,12.86
2018-05-02T04:49:10.590Z,12.86
2018-05-02T04:50:10.034Z,12.83
2018-05-02T04:51:10.625Z,12.83
2018-05-02T04:52:10.657Z,12.8
2018-05-02T04:53:10.656Z,12.85
2018-05-02T04:54:10.382Z,12.91
2018-05-02T04:55:10.127Z,12.94
2018-05-02T04:56:10.145Z,12.86
2018-05-02T04:57:10.446Z,12.93
2018-05-02T04:58:10.471Z,12.86
2018-05-02T04:59:10.778Z,12.9
2018-05-02T05:00:10.794Z,12.93
2018-05-02T05:01:10.802Z,12.91
2018-05-02T05:02:10.825Z,12.94
2018-05-02T05:03:10.538Z,12.97
2018-05-02T05:04:10.274Z,13
2018-05-02T05:05:10.863Z,12.97
2018-05-02T05:06:10.621Z,13
2018-05-02T05:07:10.648Z,13.01
2018-05-02T05:08:10.632Z,13.01
2018-05-02T05:09:10.668Z,13
2018-05-02T05:10:10.653Z,13.08
2018-05-02T05:11:10.971Z,13.04
2018-05-02T05:12:11.051Z,13.08
2018-05-02T05:13:10.724Z,13.01
2018-05-02T05:14:11.054Z,13.09
2018-05-02T05:15:11.026Z,13.11
2018-05-02T05:16:10.768Z,13.04
2018-05-02T05:17:11.071Z,13.03
2018-05-02T05:18:11.140Z,13.15
2018-05-02T05:19:11.112Z,13.15
2018-05-02T05:20:10.825Z,13.08
2018-05-02T05:21:11.139Z,13.16
2018-05-02T05:22:11.174Z,13.18
2018-05-02T05:23:11.227Z,13.15
2018-05-02T05:24:11.195Z,13.22
2018-05-02T05:25:11.207Z,13.22
2018-05-02T05:26:10.937Z,13.2
2018-05-02T05:27:10.959Z,13.19
2018-05-02T05:28:11.113Z,13.19
2018-05-02T05:29:10.787Z,13.2
2018-05-02T05:30:11.285Z,13.33
2018-05-02T05:31:11.318Z,13.31
2018-05-02T05:32:11.333Z,13.19
2018-05-02T05:33:11.067Z,13.35
2018-05-02T05:34:11.072Z,13.33
2018-05-02T05:35:11.532Z,13.3
2018-05-02T05:36:11.117Z,13.33
2018-05-02T05:37:10.877Z,13.3
2018-05-02T05:38:11.207Z,13.38
2018-05-02T05:39:11.460Z,13.38
2018-05-02T05:40:11.468Z,13.38
2018-05-02T05:41:11.191Z,13.41
2018-05-02T05:42:11.498Z,13.41
2018-05-02T05:43:11.516Z,13.47
2018-05-02T05:44:11.536Z,13.42
2018-05-02T05:45:11.547Z,13.52
2018-05-02T05:46:11.581Z,13.5
2018-05-02T05:47:11.603Z,13.47
2018-05-02T05:48:11.678Z,13.56
2018-05-02T05:49:11.355Z,13.6
2018-05-02T05:50:11.091Z,13.56
2018-05-02T05:51:11.641Z,13.53
2018-05-02T05:52:11.382Z,13.6
2018-05-02T05:53:11.714Z,13.62
2018-05-02T05:54:12.300Z,13.59
2018-05-02T05:55:11.438Z,13.7
2018-05-02T05:56:11.756Z,13.75
2018-05-02T05:57:11.791Z,13.72
2018-05-02T05:58:11.785Z,13.74
2018-05-02T05:59:11.779Z,13.74
2018-05-02T06:00:11.246Z,13.74
2018-05-02T06:01:11.820Z,13.75
2018-05-02T06:02:11.844Z,13.81
2018-05-02T06:03:11.866Z,13.78
2018-05-02T06:04:11.326Z,13.79
2018-05-02T06:05:11.896Z,13.83
2018-05-02T06:06:11.361Z,13.81
2018-05-02T06:07:11.941Z,13.86
2018-05-02T06:08:11.961Z,13.92
2018-05-02T06:09:11.972Z,13.95
2018-05-02T06:10:12.040Z,13.97
2018-05-02T06:11:11.730Z,13.95
2018-05-02T06:12:12.050Z,13.96
2018-05-02T06:13:11.773Z,14
2018-05-02T06:14:12.055Z,14
2018-05-02T06:15:12.084Z,14.05
2018-05-02T06:16:12.098Z,14.08
2018-05-02T06:17:11.834Z,14.17
2018-05-02T06:18:12.141Z,14.1
2018-05-02T06:19:12.153Z,14.2
2018-05-02T06:20:12.212Z,14.14
2018-05-02T06:21:12.194Z,14.28
2018-05-02T06:22:12.184Z,14.17
2018-05-02T06:23:12.220Z,14.15
2018-05-02T06:24:11.970Z,14.25
2018-05-02T06:25:12.286Z,14.25
2018-05-02T06:26:12.521Z,14.26
2018-05-02T06:27:12.001Z,14.32
2018-05-02T06:28:12.017Z,14.3
2018-05-02T06:29:12.327Z,14.33
2018-05-02T06:30:12.367Z,14.36
2018-05-02T06:31:12.380Z,14.41
2018-05-02T06:32:12.088Z,14.47
2018-05-02T06:33:12.384Z,14.36
2018-05-02T06:34:12.435Z,14.53
2018-05-02T06:35:12.436Z,14.51
2018-05-02T06:36:12.448Z,14.53
2018-05-02T06:37:12.449Z,14.47
2018-05-02T06:38:12.511Z,14.54
2018-05-02T06:39:12.501Z,14.68
2018-05-02T06:40:12.519Z,14.66
2018-05-02T06:41:12.257Z,14.72
2018-05-02T06:42:12.562Z,14.73
2018-05-02T06:43:12.360Z,14.77
2018-05-02T06:44:12.299Z,14.78
2018-05-02T06:45:12.055Z,14.77
2018-05-02T06:46:12.626Z,14.79
2018-05-02T06:47:12.665Z,14.78
2018-05-02T06:48:12.663Z,14.84
2018-05-02T06:49:12.866Z,14.84
2018-05-02T06:50:12.765Z,15
2018-05-02T06:51:12.733Z,14.89
2018-05-02T06:52:12.762Z,14.97
2018-05-02T06:53:12.755Z,14.92
2018-05-02T06:54:12.762Z,15.02
2018-05-02T06:55:12.799Z,15.03
2018-05-02T06:56:12.810Z,14.99
2018-05-02T06:57:12.849Z,15.03
2018-05-02T06:58:12.852Z,15.09
2018-05-02T06:59:12.600Z,15.09
2018-05-02T07:00:12.888Z,15.09
2018-05-02T07:01:12.885Z,15.15
2018-05-02T07:02:12.924Z,15.24
2018-05-02T07:03:12.658Z,15.18
2018-05-02T07:04:12.956Z,15.18
2018-05-02T07:05:12.970Z,15.24
2018-05-02T07:06:13.004Z,15.19
2018-05-02T07:07:13.099Z,15.31
2018-05-02T07:08:13.026Z,15.27
2018-05-02T07:09:12.777Z,15.39
2018-05-02T07:10:13.055Z,15.37
2018-05-02T07:11:13.082Z,15.37
2018-05-02T07:12:13.101Z,15.42
2018-05-02T07:13:13.132Z,15.44
2018-05-02T07:14:13.144Z,15.47
2018-05-02T07:15:13.140Z,15.52
2018-05-02T07:16:13.190Z,15.51
2018-05-02T07:17:12.910Z,15.52
2018-05-02T07:18:12.918Z,15.57
2018-05-02T07:19:12.949Z,15.58
2018-05-02T07:20:13.248Z,15.67
2018-05-02T07:21:13.262Z,15.59
2018-05-02T07:22:12.996Z,15.68
2018-05-02T07:23:13.322Z,15.72
2018-05-02T07:24:13.044Z,15.75
2018-05-02T07:25:13.354Z,15.79
2018-05-02T07:26:13.376Z,15.72
2018-05-02T07:27:13.363Z,15.79
2018-05-02T07:28:13.399Z,15.83
2018-05-02T07:29:13.402Z,15.86
2018-05-02T07:30:13.472Z,15.94
2018-05-02T07:31:13.452Z,15.92
2018-05-02T07:32:13.475Z,15.94
2018-05-02T07:33:13.691Z,16.02
2018-05-02T07:34:13.502Z,15.97
2018-05-02T07:35:13.518Z,16.13
2018-05-02T07:36:13.271Z,16.04
2018-05-02T07:37:13.300Z,16.12
2018-05-02T07:38:13.314Z,16.2
2018-05-02T07:39:13.616Z,16.16
2018-05-02T07:40:13.766Z,16.17
2018-05-02T07:41:13.373Z,16.17
2018-05-02T07:42:13.579Z,16.23
2018-05-02T07:43:13.695Z,16.23
2018-05-02T07:44:13.697Z,16.26
2018-05-02T07:45:13.453Z,16.29
2018-05-02T07:46:13.733Z,16.2
2018-05-02T07:47:13.477Z,16.33
2018-05-02T07:48:13.505Z,16.32
2018-05-02T07:49:13.513Z,16.43
2018-05-02T07:50:13.576Z,16.43
2018-05-02T07:51:13.536Z,16.38
2018-05-02T07:52:13.873Z,16.38
2018-05-02T07:53:13.321Z,16.43
2018-05-02T07:54:13.616Z,16.39
2018-05-02T07:55:13.627Z,16.38
2018-05-02T07:56:13.664Z,16.39
2018-05-02T07:57:13.939Z,16.38
2018-05-02T07:58:13.697Z,16.5
2018-05-02T07:59:13.695Z,16.43
2018-05-02T08:00:14.013Z,16.54
2018-05-02T08:01:13.455Z,16.47
2018-05-02T08:02:13.766Z,16.49
2018-05-02T08:03:14.048Z,16.57
2018-05-02T08:04:13.806Z,16.58
2018-05-02T08:05:13.820Z,16.61
2018-05-02T08:06:14.107Z,16.65
2018-05-02T08:07:14.121Z,16.65
2018-05-02T08:08:14.181Z,16.61
2018-05-02T08:09:14.281Z,16.75
2018-05-02T08:10:14.214Z,16.75
2018-05-02T08:11:14.391Z,16.75
2018-05-02T08:12:14.252Z,16.83
2018-05-02T08:13:13.977Z,16.78
2018-05-02T08:14:14.296Z,16.81
2018-05-02T08:15:14.052Z,16.79
2018-05-02T08:16:14.025Z,16.9
2018-05-02T08:17:14.320Z,16.91
2018-05-02T08:18:14.360Z,16.87
2018-05-02T08:19:14.374Z,16.9
2018-05-02T08:20:14.409Z,16.86
2018-05-02T08:21:14.415Z,17.01
2018-05-02T08:22:14.602Z,17.02
2018-05-02T08:23:14.457Z,17.01
2018-05-02T08:24:14.455Z,16.94
2018-05-02T08:25:14.209Z,16.97
2018-05-02T08:26:14.510Z,16.97
2018-05-02T08:27:14.541Z,16.96
2018-05-02T08:28:14.549Z,16.9
2018-05-02T08:29:14.560Z,17.05
2018-05-02T08:30:14.604Z,16.97
2018-05-02T08:31:14.316Z,17.02
2018-05-02T08:32:14.637Z,17.09
2018-05-02T08:33:14.368Z,17.02
2018-05-02T08:34:14.093Z,17.06
2018-05-02T08:35:14.692Z,16.84
2018-05-02T08:36:14.434Z,16.9
2018-05-02T08:37:14.727Z,17.01
2018-05-02T08:38:14.759Z,16.97
2018-05-02T08:39:14.743Z,17.02
2018-05-02T08:40:14.496Z,16.99
2018-05-02T08:41:14.507Z,17.01
2018-05-02T08:42:14.822Z,17.04
2018-05-02T08:43:14.831Z,16.96
2018-05-02T08:44:14.855Z,16.99
2018-05-02T08:45:14.609Z,16.96
2018-05-02T08:46:14.896Z,17.01
2018-05-02T08:47:14.933Z,16.96
2018-05-02T08:48:14.659Z,17.05
2018-05-02T08:49:14.974Z,17.04
2018-05-02T08:50:14.699Z,17.06
2018-05-02T08:51:14.990Z,17.02
2018-05-02T08:52:15.016Z,16.97
2018-05-02T08:53:15.035Z,17.08
2018-05-02T08:54:15.068Z,17.02
2018-05-02T08:55:15.065Z,16.99
2018-05-02T08:56:15.094Z,16.89
2018-05-02T08:57:15.139Z,17.11
2018-05-02T08:58:15.142Z,17.11
2018-05-02T08:59:14.865Z,16.94
2018-05-02T09:00:14.909Z,17.02
2018-05-02T09:01:15.206Z,17.06
2018-05-02T09:02:15.219Z,17.01
2018-05-02T09:03:15.240Z,17.02
2018-05-02T09:04:15.238Z,17.02
2018-05-02T09:05:15.002Z,17.05
2018-05-02T09:06:15.315Z,16.99
2018-05-02T09:07:15.329Z,17.01
2018-05-02T09:08:15.332Z,17.11
2018-05-02T09:09:15.365Z,17.08
2018-05-02T09:10:15.107Z,17.14
2018-05-02T09:11:15.157Z,17.05
2018-05-02T09:12:15.433Z,17.14
2018-05-02T09:13:15.139Z,17.14
2018-05-02T09:14:15.456Z,17.09
2018-05-02T09:15:15.462Z,17.08
2018-05-02T09:16:15.476Z,17.23
2018-05-02T09:17:15.219Z,17.11
2018-05-02T09:18:15.537Z,17.14
2018-05-02T09:19:15.555Z,17.16
2018-05-02T09:20:15.284Z,17.19
2018-05-02T09:21:15.651Z,17.2
2018-05-02T09:22:15.636Z,17.23
2018-05-02T09:23:15.713Z,17.24
2018-05-02T09:24:15.646Z,17.2
2018-05-02T09:25:15.401Z,17.29
2018-05-02T09:26:15.128Z,17.23
2018-05-02T09:27:15.696Z,17.2
2018-05-02T09:28:15.764Z,17.2
2018-05-02T09:29:15.478Z,17.34
2018-05-02T09:30:15.757Z,17.3
2018-05-02T09:31:15.497Z,17.27
2018-05-02T09:32:15.518Z,17.38
2018-05-02T09:33:15.259Z,17.34
2018-05-02T09:34:15.830Z,17.36
2018-05-02T09:35:15.867Z,17.33
2018-05-02T09:36:15.934Z,17.44
2018-05-02T09:37:15.616Z,17.52
2018-05-02T09:38:15.968Z,17.45
2018-05-02T09:39:15.963Z,17.54
2018-05-02T09:40:15.953Z,17.51
2018-05-02T09:41:15.708Z,17.52
2018-05-02T09:42:16.009Z,17.51
2018-05-02T09:43:16.013Z,17.6
2018-05-02T09:44:16.344Z,17.54
2018-05-02T09:45:16.068Z,17.63
2018-05-02T09:46:16.151Z,17.68
2018-05-02T09:47:16.092Z,17.65
2018-05-02T09:48:15.832Z,17.67
2018-05-02T09:49:16.150Z,17.65
2018-05-02T09:50:15.881Z,17.7
2018-05-02T09:51:16.194Z,17.7
2018-05-02T09:52:16.222Z,17.71
2018-05-02T09:53:16.217Z,17.64
2018-05-02T09:54:15.968Z,17.71
2018-05-02T09:55:16.292Z,17.72
2018-05-02T09:56:16.293Z,17.7
2018-05-02T09:57:16.315Z,17.72
2018-05-02T09:58:16.568Z,17.68
2018-05-02T09:59:16.362Z,17.78
2018-05-02T10:00:16.381Z,17.7
2018-05-02T10:01:15.817Z,17.71
2018-05-02T10:02:16.422Z,17.72
2018-05-02T10:03:16.131Z,17.76
2018-05-02T10:04:16.159Z,17.8
2018-05-02T10:05:16.182Z,17.79
2018-05-02T10:06:16.206Z,17.86
2018-05-02T10:07:16.229Z,17.87
2018-05-02T10:08:16.540Z,17.89
2018-05-02T10:09:16.275Z,17.87
2018-05-02T10:10:16.572Z,17.83
2018-05-02T10:11:16.311Z,17.86
2018-05-02T10:12:16.629Z,17.8
2018-05-02T10:13:16.661Z,17.9
2018-05-02T10:14:16.362Z,17.82
2018-05-02T10:15:16.378Z,17.8
2018-05-02T10:16:16.718Z,17.79
2018-05-02T10:17:16.441Z,17.72
2018-05-02T10:18:16.740Z,17.8
2018-05-02T10:19:16.783Z,17.8
2018-05-02T10:20:16.774Z,17.82
2018-05-02T10:21:16.527Z,17.82
2018-05-02T10:22:16.531Z,17.83
2018-05-02T10:23:16.561Z,17.79
2018-05-02T10:24:16.571Z,17.76
2018-05-02T10:25:16.884Z,17.78
2018-05-02T10:26:17.180Z,17.79
2018-05-02T10:27:16.653Z,17.78
2018-05-02T10:28:16.672Z,17.79
2018-05-02T10:29:16.972Z,17.74
2018-05-02T10:30:17.026Z,17.72
2018-05-02T10:31:17.022Z,17.7
2018-05-02T10:32:17.032Z,17.72
2018-05-02T10:33:17.032Z,17.67
2018-05-02T10:34:17.073Z,17.71
2018-05-02T10:35:17.083Z,17.7
2018-05-02T10:36:17.100Z,17.7
2018-05-02T10:37:16.841Z,17.71
2018-05-02T10:38:16.867Z,17.71
2018-05-02T10:39:17.150Z,17.64
2018-05-02T10:40:17.208Z,17.72
2018-05-02T10:41:16.930Z,17.74
2018-05-02T10:42:17.224Z,17.72
2018-05-02T10:43:17.625Z,17.72
2018-05-02T10:44:17.268Z,17.74
2018-05-02T10:45:17.281Z,17.64
2018-05-02T10:46:17.300Z,17.68
2018-05-02T10:47:17.308Z,17.67
2018-05-02T10:48:17.326Z,17.71
2018-05-02T10:49:17.369Z,17.71
2018-05-02T10:51:20.925Z,17.79
2018-05-02T10:51:30.681Z,17.7
2018-05-02T10:52:30.984Z,17.74
2018-05-02T10:53:31.011Z,17.76
2018-05-02T10:54:30.456Z,17.68
2018-05-02T10:55:31.057Z,17.76
2018-05-02T10:56:30.787Z,17.74
2018-05-02T10:57:31.089Z,17.78
2018-05-02T10:58:30.827Z,17.72
2018-05-02T10:59:31.135Z,17.71
2018-05-02T11:00:30.871Z,17.78
2018-05-02T11:01:30.937Z,17.83
2018-05-02T11:02:30.907Z,17.9
2018-05-02T11:03:31.206Z,17.92
2018-05-02T11:04:31.245Z,17.9
2018-05-02T11:05:30.682Z,18.01
2018-05-02T11:06:31.268Z,18.04
2018-05-02T11:07:31.292Z,18.1
2018-05-02T11:08:31.674Z,18.16
2018-05-02T11:09:30.766Z,18.19
2018-05-02T11:10:31.066Z,18.22
2018-05-02T11:11:31.087Z,18.37
2018-05-02T11:12:31.393Z,18.28
2018-05-02T11:13:31.417Z,18.38
2018-05-02T11:14:30.863Z,18.49
2018-05-02T11:15:31.452Z,18.53
2018-05-02T11:16:31.475Z,18.62
2018-05-02T11:17:31.501Z,18.65
2018-05-02T11:18:31.523Z,18.68
2018-05-02T11:19:30.968Z,18.75
2018-05-02T11:20:31.559Z,18.77
2018-05-02T11:21:31.578Z,18.83
2018-05-02T11:22:31.642Z,18.84
2018-05-02T11:23:31.616Z,18.88
2018-05-02T11:24:31.642Z,18.93
2018-05-02T11:25:31.661Z,18.96
2018-05-02T11:26:31.698Z,19.08
2018-05-02T11:27:31.421Z,19.15
2018-05-02T11:28:31.637Z,19.18
2018-05-02T11:29:31.756Z,19.29
2018-05-02T11:30:31.767Z,19.3
2018-05-02T11:31:31.554Z,19.39
2018-05-02T11:32:31.808Z,19.36
2018-05-02T11:33:31.831Z,19.45
2018-05-02T11:34:31.640Z,19.55
2018-05-02T11:35:31.586Z,19.59
2018-05-02T11:36:31.892Z,19.7
2018-05-02T11:37:31.913Z,19.69
2018-05-02T11:38:31.931Z,19.81
2018-05-02T11:39:31.950Z,19.89
2018-05-02T11:40:32.005Z,19.95
2018-05-02T11:41:32.008Z,19.99
2018-05-02T11:42:31.737Z,20.1
2018-05-02T11:43:32.042Z,20.11
2018-05-02T11:44:31.774Z,20.29
2018-05-02T11:45:31.796Z,20.29
2018-05-02T11:46:32.100Z,20.4
2018-05-02T11:47:31.844Z,20.41
2018-05-02T11:48:31.923Z,20.47
2018-05-02T11:49:31.604Z,20.51
2018-05-02T11:50:31.627Z,20.59
2018-05-02T11:51:31.932Z,20.63
2018-05-02T11:52:31.947Z,20.74
2018-05-02T11:53:32.254Z,20.75
2018-05-02T11:54:32.279Z,20.88
2018-05-02T11:55:32.302Z,20.87
2018-05-02T11:56:32.321Z,20.93
2018-05-02T11:57:32.055Z,21.02
2018-05-02T11:58:31.803Z,21.06
2018-05-02T11:59:32.388Z,21.11
2018-05-02T12:00:32.405Z,21.18
2018-05-02T12:01:32.151Z,21.21
2018-05-02T12:02:32.509Z,21.35
2018-05-02T12:03:32.275Z,21.27
2018-05-02T12:04:32.217Z,21.42
2018-05-02T12:05:32.235Z,21.32
2018-05-02T12:06:32.542Z,21.42
2018-05-02T12:07:32.566Z,21.51
2018-05-02T12:08:32.597Z,21.55
2018-05-02T12:09:32.608Z,21.61
2018-05-02T12:10:32.903Z,21.73
2018-05-02T12:11:32.364Z,21.75
2018-05-02T12:12:32.396Z,21.7
2018-05-02T12:13:32.694Z,21.82
2018-05-02T12:14:32.436Z,21.85
2018-05-02T12:15:32.745Z,21.92
2018-05-02T12:16:32.759Z,21.99
2018-05-02T12:17:32.785Z,21.99
2018-05-02T12:18:32.809Z,21.99
2018-05-02T12:19:32.826Z,22.04
2018-05-02T12:20:32.283Z,22.06
2018-05-02T12:21:32.591Z,22.14
2018-05-02T12:22:32.613Z,22.17
2018-05-02T12:23:32.641Z,22.14
2018-05-02T12:24:32.944Z,22.18
2018-05-02T12:25:32.683Z,22.23
2018-05-02T12:26:32.705Z,22.25
2018-05-02T12:27:33.019Z,22.35
2018-05-02T12:28:32.748Z,22.35
2018-05-02T12:29:33.062Z,22.39
2018-05-02T12:30:33.084Z,22.47
2018-05-02T12:31:33.101Z,22.45
2018-05-02T12:32:32.847Z,22.55
2018-05-02T12:33:33.165Z,22.45
2018-05-02T12:34:33.188Z,22.62
2018-05-02T12:35:33.527Z,22.6
2018-05-02T12:36:33.323Z,22.69
2018-05-02T12:37:32.955Z,22.66
2018-05-02T12:38:33.264Z,22.7
2018-05-02T12:39:33.291Z,22.66
2018-05-02T12:40:33.313Z,22.72
2018-05-02T12:41:33.335Z,22.83
2018-05-02T12:42:33.359Z,22.87
2018-05-02T12:43:33.378Z,22.84
2018-05-02T12:44:33.122Z,22.84
2018-05-02T12:45:33.427Z,22.9
2018-05-02T12:46:33.498Z,22.99
2018-05-02T12:47:33.472Z,23.03
2018-05-02T12:48:33.500Z,22.99
2018-05-02T12:49:33.525Z,22.93
2018-05-02T12:50:33.332Z,23.1
2018-05-02T12:51:32.999Z,23.03
2018-05-02T12:52:33.323Z,23.06
2018-05-02T12:53:33.615Z,23.15
2018-05-02T12:54:33.650Z,23.09
2018-05-02T12:55:33.658Z,23.12
2018-05-02T12:56:33.399Z,23.09